Time;durP1;ratioP1;P1;durP2;ratioP2;P2;SDS_P1;SDS_P2;PMS_P1;PMS_P2;Temp;Humidity;BMP_temperature;BMP_pressure;BME280_temperature;BME280_humidity;BME280_pressure;Samples;Min_cycle;Max_cycle;Signal;HPM_P1;HPM_P2
2022/10/27 00:01:31;;;;;;;37.75;17.52;;;12.60;99.90;;;;;;4931760;29;20056;-71
2022/10/27 00:03:57;;;;;;;33.97;16.73;;;12.60;99.90;;;;;;4947939;29;20059;-71
2022/10/27 00:06:22;;;;;;;32.35;17.63;;;12.60;99.90;;;;;;4932714;29;20082;-71
2022/10/27 00:08:50;;;;;;;28.27;18.60;;;12.50;99.90;;;;;;4933229;29;20505;-71
2022/10/27 00:11:15;;;;;;;31.75;18.95;;;12.50;99.90;;;;;;4931560;29;20489;-71
2022/10/27 00:13:41;;;;;;;32.65;17.80;;;12.60;99.90;;;;;;4931797;29;20075;-71
2022/10/27 00:16:14;;;;;;;25.08;18.45;;;12.60;99.90;;;;;;4928364;29;20155;-70
2022/10/27 00:18:41;;;;;;;29.27;17.05;;;12.50;99.90;;;;;;4926714;29;20560;-71
2022/10/27 00:21:09;;;;;;;31.80;17.42;;;12.50;99.90;;;;;;4933345;29;20055;-70
2022/10/27 00:23:36;;;;;;;36.55;17.75;;;12.50;99.90;;;;;;4932303;29;20123;-70
2022/10/27 00:26:03;;;;;;;40.13;17.70;;;12.40;99.90;;;;;;4930779;29;20055;-70
2022/10/27 00:28:29;;;;;;;37.42;17.38;;;12.40;99.90;;;;;;4930723;29;20500;-71
2022/10/27 00:31:00;;;;;;;27.92;17.35;;;12.40;99.90;;;;;;4930738;29;20051;-70
2022/10/27 00:33:26;;;;;;;27.63;16.25;;;12.40;99.90;;;;;;4931257;29;20480;-70
2022/10/27 00:35:52;;;;;;;26.38;16.85;;;12.40;99.90;;;;;;4932275;29;20056;-71
2022/10/27 00:38:20;;;;;;;25.60;16.48;;;12.30;99.90;;;;;;4930433;29;20061;-71
2022/10/27 00:40:45;;;;;;;24.20;17.58;;;12.30;99.90;;;;;;4946799;28;20119;-71
2022/10/27 00:43:32;;;;;;;27.33;16.85;;;12.30;99.90;;;;;;4931100;29;20139;-71
2022/10/27 00:46:22;;;;;;;22.48;16.52;;;12.30;99.90;;;;;;4931606;29;20062;-71
2022/10/27 00:48:54;;;;;;;32.75;19.20;;;12.20;99.90;;;;;;4929975;29;20824;-71
2022/10/27 00:51:19;;;;;;;41.90;19.55;;;12.20;99.90;;;;;;4932379;29;20043;-71
2022/10/27 00:53:46;;;;;;;27.65;18.75;;;12.20;99.90;;;;;;4930946;29;20408;-71
2022/10/27 00:56:12;;;;;;;24.85;17.27;;;12.40;99.90;;;;;;4932273;29;20096;-71
2022/10/27 00:58:39;;;;;;;34.30;20.13;;;12.30;99.90;;;;;;4931353;29;20385;-71
2022/10/27 01:01:05;;;;;;;40.15;20.33;;;12.30;99.90;;;;;;4931117;29;20411;-71
2022/10/27 01:03:32;;;;;;;36.08;20.30;;;12.30;99.90;;;;;;4931741;29;20055;-71
2022/10/27 01:06:00;;;;;;;34.10;18.52;;;12.40;99.90;;;;;;4926133;29;20062;-71
2022/10/27 01:08:26;;;;;;;34.38;20.05;;;12.40;99.90;;;;;;4932385;29;20047;-71
2022/10/27 01:10:52;;;;;;;44.40;22.35;;;12.40;99.90;;;;;;4931519;29;20448;-71
2022/10/27 01:13:19;;;;;;;32.95;20.65;;;12.40;99.90;;;;;;4932140;29;20047;-70
2022/10/27 01:15:50;;;;;;;35.22;19.13;;;12.50;99.90;;;;;;4929418;29;20624;-70
2022/10/27 01:18:26;;;;;;;36.85;21.88;;;12.50;99.90;;;;;;4931503;29;20376;-70
2022/10/27 01:21:06;;;;;;;37.47;21.25;;;12.60;99.90;;;;;;4930117;29;20052;-70
2022/10/27 01:23:49;;;;;;;40.30;20.83;;;12.60;99.90;;;;;;4930874;29;20106;-71
2022/10/27 01:26:38;;;;;;;39.83;21.55;;;12.60;99.90;;;;;;4930301;29;20102;-70
2022/10/27 01:29:06;;;;;;;37.78;21.23;;;12.60;99.90;;;;;;4930945;29;20074;-71
2022/10/27 01:31:35;;;;;;;36.05;21.05;;;12.60;99.90;;;;;;4924242;29;20059;-70
2022/10/27 01:34:13;;;;;;;;;;;12.60;99.90;;;;;;4946450;29;20047;-71
2022/10/27 01:36:47;;;;;;;41.20;20.90;;;12.60;99.90;;;;;;4930727;29;19978;-70
2022/10/27 01:39:17;;;;;;;41.65;20.52;;;12.60;99.90;;;;;;4929152;29;20060;-70
2022/10/27 01:41:49;;;;;;;38.60;19.60;;;12.60;99.90;;;;;;4931237;29;20083;-71
2022/10/27 01:44:21;;;;;;;41.17;22.95;;;12.60;99.90;;;;;;4930632;29;20058;-70
2022/10/27 01:46:48;;;;;;;33.05;20.67;;;12.60;99.90;;;;;;4928530;29;20051;-70
2022/10/27 01:49:14;;;;;;;34.88;21.27;;;12.60;99.90;;;;;;4931221;28;20142;-70
2022/10/27 01:51:42;;;;;;;36.90;22.00;;;12.70;99.90;;;;;;4930621;29;20059;-70
2022/10/27 01:54:08;;;;;;;34.92;22.63;;;12.70;99.90;;;;;;4927850;29;20113;-70
2022/10/27 01:56:40;;;;;;;35.85;21.65;;;12.80;99.90;;;;;;4931088;29;20113;-70
2022/10/27 01:59:11;;;;;;;40.90;22.52;;;12.70;99.90;;;;;;4930660;29;20050;-70
2022/10/27 02:02:17;;;;;;;43.97;21.83;;;12.80;99.90;;;;;;4930812;29;20059;-70
2022/10/27 02:04:54;;;;;;;33.38;21.38;;;12.90;99.90;;;;;;4897823;29;20070;-70
2022/10/27 02:07:52;;;;;;;38.88;22.27;;;12.80;99.90;;;;;;4930951;29;20115;-70
2022/10/27 02:10:33;;;;;;;37.60;21.20;;;12.90;99.90;;;;;;4929838;29;20400;-70
2022/10/27 02:12:59;;;;;;;48.85;23.50;;;12.90;99.90;;;;;;4929956;29;20098;-70
2022/10/27 02:15:32;;;;;;;33.50;21.92;;;13.00;99.90;;;;;;4930926;29;20067;-70
2022/10/27 02:18:14;;;;;;;35.80;21.27;;;13.00;99.90;;;;;;4930638;29;20090;-70
2022/10/27 02:20:44;;;;;;;40.85;22.13;;;13.00;99.90;;;;;;4929166;29;20039;-70
2022/10/27 02:23:15;;;;;;;42.83;22.77;;;13.10;99.90;;;;;;4930673;29;20201;-70
2022/10/27 02:26:02;;;;;;;35.97;22.60;;;13.20;99.90;;;;;;4930328;29;20526;-70
2022/10/27 02:28:45;;;;;;;41.85;20.73;;;13.20;99.90;;;;;;4927907;29;20515;-70
2022/10/27 02:31:15;;;;;;;44.38;24.27;;;13.20;99.90;;;;;;4932662;29;20058;-70
2022/10/27 02:33:42;;;;;;;45.72;25.65;;;13.20;99.90;;;;;;4930642;29;20130;-70
2022/10/27 02:36:08;;;;;;;40.05;23.08;;;13.30;99.90;;;;;;4929899;29;20079;-70
2022/10/27 02:38:33;;;;;;;41.08;22.42;;;13.30;99.90;;;;;;4928452;29;20086;-70
2022/10/27 02:40:59;;;;;;;48.45;23.40;;;13.30;99.90;;;;;;4944610;28;20118;-70
2022/10/27 02:43:24;;;;;;;35.92;24.10;;;13.30;99.90;;;;;;4929877;29;20058;-70
2022/10/27 02:45:50;;;;;;;48.10;24.15;;;13.30;99.90;;;;;;4930051;29;20043;-70
2022/10/27 02:48:16;;;;;;;32.53;22.13;;;13.30;99.90;;;;;;4928794;29;20052;-70
2022/10/27 02:50:41;;;;;;;35.45;23.40;;;13.30;99.90;;;;;;4930510;29;20048;-70
2022/10/27 02:53:07;;;;;;;43.92;24.38;;;13.30;99.90;;;;;;4928733;29;20083;-70
2022/10/27 02:55:32;;;;;;;31.85;21.50;;;13.40;99.90;;;;;;4929242;29;20074;-70
2022/10/27 02:57:58;;;;;;;31.25;19.98;;;13.30;99.90;;;;;;4932831;29;20050;-70
2022/10/27 03:00:24;;;;;;;35.50;21.85;;;13.20;99.90;;;;;;4947807;28;20078;-70
2022/10/27 03:02:49;;;;;;;38.92;22.80;;;13.30;99.90;;;;;;4932766;29;20386;-70
2022/10/27 03:05:15;;;;;;;44.35;23.80;;;13.20;99.90;;;;;;4947912;29;20062;-70
2022/10/27 03:07:42;;;;;;;37.45;22.08;;;13.20;99.90;;;;;;4934208;29;20035;-70
2022/10/27 03:10:08;;;;;;;30.25;20.70;;;13.20;99.90;;;;;;4948350;29;20066;-70
2022/10/27 03:12:34;;;;;;;44.17;23.52;;;13.20;99.90;;;;;;4934069;29;20047;-70
2022/10/27 03:14:59;;;;;;;45.75;22.90;;;13.10;99.90;;;;;;4933359;29;20044;-70
2022/10/27 03:17:25;;;;;;;39.53;22.13;;;13.10;99.90;;;;;;4932837;29;20496;-71
2022/10/27 03:19:50;;;;;;;36.15;21.92;;;13.10;99.90;;;;;;4934087;29;20066;-70
2022/10/27 03:22:16;;;;;;;39.63;21.77;;;13.10;99.90;;;;;;4942740;29;20083;-70
2022/10/27 03:24:42;;;;;;;38.17;22.33;;;13.20;99.90;;;;;;4934183;29;20047;-70
2022/10/27 03:27:07;;;;;;;42.70;22.40;;;13.10;99.90;;;;;;4931899;29;20147;-70
2022/10/27 03:29:33;;;;;;;30.85;21.13;;;13.10;99.90;;;;;;4933680;29;20127;-70
2022/10/27 03:31:59;;;;;;;37.45;20.80;;;13.10;99.90;;;;;;4933442;29;20083;-70
2022/10/27 03:34:24;;;;;;;29.02;21.75;;;13.10;99.90;;;;;;4929842;29;20051;-70
2022/10/27 03:36:50;;;;;;;33.38;21.85;;;13.00;99.90;;;;;;4933498;29;20055;-70
2022/10/27 03:39:15;;;;;;;37.28;21.67;;;13.10;99.90;;;;;;4932466;29;20072;-70
2022/10/27 03:41:42;;;;;;;34.83;20.13;;;12.90;99.90;;;;;;4933388;29;20043;-70
2022/10/27 03:44:09;;;;;;;30.13;18.02;;;12.80;99.90;;;;;;4931917;29;20055;-70
2022/10/27 03:46:34;;;;;;;29.50;19.73;;;12.70;99.90;;;;;;4932060;29;20052;-70
2022/10/27 03:49:00;;;;;;;32.42;19.10;;;12.70;99.90;;;;;;4933576;29;20051;-70
2022/10/27 03:51:26;;;;;;;24.60;17.70;;;12.60;99.90;;;;;;4930761;29;20051;-70
2022/10/27 03:53:51;;;;;;;25.88;17.92;;;12.60;99.90;;;;;;4931838;29;20587;-70
2022/10/27 03:56:18;;;;;;;30.10;19.17;;;12.60;99.90;;;;;;4947798;29;20528;-70
2022/10/27 03:58:43;;;;;;;27.48;17.35;;;12.50;99.90;;;;;;4933332;29;20417;-70
2022/10/27 04:01:11;;;;;;;21.42;16.58;;;12.50;99.90;;;;;;4930413;29;20107;-70
2022/10/27 04:03:36;;;;;;;28.98;18.88;;;12.50;99.90;;;;;;4933039;29;20044;-70
2022/10/27 04:06:02;;;;;;;24.55;16.35;;;12.40;99.90;;;;;;4930542;29;20118;-70
2022/10/27 04:08:27;;;;;;;20.90;14.90;;;12.30;99.90;;;;;;4946365;28;20048;-70
2022/10/27 04:10:53;;;;;;;23.70;16.65;;;12.20;99.90;;;;;;4933682;29;20396;-70
2022/10/27 04:13:19;;;;;;;26.13;17.52;;;12.20;99.90;;;;;;4932876;29;20048;-70
2022/10/27 04:15:44;;;;;;;34.25;18.73;;;12.20;99.90;;;;;;4930956;29;20117;-70
2022/10/27 04:18:10;;;;;;;27.10;19.10;;;12.20;99.90;;;;;;4932867;29;20060;-70
2022/10/27 04:20:36;;;;;;;25.02;17.90;;;12.20;99.90;;;;;;4932705;29;20048;-70
2022/10/27 04:23:01;;;;;;;32.67;17.50;;;12.10;99.90;;;;;;4931142;29;20138;-70
2022/10/27 04:25:27;;;;;;;41.40;20.73;;;12.10;99.90;;;;;;4933212;29;20135;-70
2022/10/27 04:28:04;;;;;;;30.90;19.45;;;12.10;99.90;;;;;;4929021;29;20090;-70
2022/10/27 04:30:29;;;;;;;27.20;18.25;;;12.10;99.90;;;;;;4925088;29;20481;-70
2022/10/27 04:32:55;;;;;;;24.33;16.30;;;12.00;99.90;;;;;;4931026;29;20079;-70
2022/10/27 04:35:21;;;;;;;23.65;17.42;;;12.00;99.90;;;;;;4931085;29;20043;-70
2022/10/27 04:37:46;;;;;;;34.58;19.30;;;12.10;99.90;;;;;;4932075;29;20826;-70
2022/10/27 04:40:12;;;;;;;44.67;22.00;;;12.00;99.90;;;;;;4929510;29;20071;-70
2022/10/27 04:42:43;;;;;;;32.65;21.38;;;12.00;99.90;;;;;;4932373;29;20056;-70
2022/10/27 04:45:09;;;;;;;30.23;19.33;;;12.00;99.90;;;;;;4932813;29;20127;-70
2022/10/27 04:47:35;;;;;;;36.90;20.75;;;11.90;99.90;;;;;;4930597;29;20127;-70
2022/10/27 04:50:00;;;;;;;31.35;18.83;;;11.90;99.90;;;;;;4931497;29;20106;-70
2022/10/27 04:52:26;;;;;;;22.35;17.33;;;11.80;99.90;;;;;;4932713;29;20055;-70
2022/10/27 04:54:51;;;;;;;24.98;17.60;;;11.80;99.90;;;;;;4929746;29;20059;-70
2022/10/27 04:57:17;;;;;;;33.65;20.55;;;11.80;99.90;;;;;;4934634;29;20493;-70
2022/10/27 04:59:43;;;;;;;31.00;17.92;;;11.70;99.90;;;;;;4931893;29;20046;-70
2022/10/27 05:02:08;;;;;;;34.70;20.90;;;11.70;99.90;;;;;;4931216;29;20063;-70
2022/10/27 05:04:34;;;;;;;25.85;20.40;;;11.70;99.90;;;;;;4931514;29;20083;-70
2022/10/27 05:07:00;;;;;;;26.52;18.73;;;11.70;99.90;;;;;;4930592;29;20051;-70
2022/10/27 05:09:25;;;;;;;30.40;20.65;;;11.70;99.90;;;;;;4930244;29;20039;-70
2022/10/27 05:11:51;;;;;;;33.45;22.42;;;11.60;99.90;;;;;;4930652;29;20239;-70
2022/10/27 05:14:17;;;;;;;46.80;25.52;;;11.60;99.90;;;;;;4931227;29;20077;-70
2022/10/27 05:16:42;;;;;;;40.53;24.48;;;11.60;99.90;;;;;;4951598;28;20050;-70
2022/10/27 05:19:08;;;;;;;56.70;28.35;;;11.60;99.90;;;;;;4930065;29;20046;-71
2022/10/27 05:21:34;;;;;;;36.10;24.65;;;11.60;99.90;;;;;;4931773;29;20048;-70
2022/10/27 05:24:00;;;;;;;43.95;27.95;;;11.60;99.90;;;;;;4943453;29;20053;-70
2022/10/27 05:26:27;;;;;;;36.60;25.05;;;11.60;99.90;;;;;;4946340;28;20130;-70
2022/10/27 05:28:52;;;;;;;44.55;27.38;;;11.60;99.90;;;;;;4930341;29;20521;-70
2022/10/27 05:31:18;;;;;;;42.35;25.65;;;11.50;99.90;;;;;;4930823;29;20047;-71
2022/10/27 05:33:44;;;;;;;39.60;26.92;;;11.60;99.90;;;;;;4937584;29;20475;-71
2022/10/27 05:36:09;;;;;;;37.03;25.13;;;11.50;99.90;;;;;;4931029;29;20123;-71
2022/10/27 05:38:37;;;;;;;35.70;23.88;;;11.50;99.90;;;;;;4930626;29;20186;-70
2022/10/27 05:41:03;;;;;;;52.65;25.75;;;11.50;99.90;;;;;;4927442;29;20055;-70
2022/10/27 05:43:28;;;;;;;43.80;27.48;;;11.50;99.90;;;;;;4929737;29;20134;-71
2022/10/27 05:45:54;;;;;;;39.72;24.70;;;11.50;99.90;;;;;;4930953;29;20780;-70
2022/10/27 05:48:20;;;;;;;43.15;27.42;;;11.50;99.90;;;;;;4930402;29;20469;-71
2022/10/27 05:50:50;;;;;;;42.70;25.98;;;11.50;99.90;;;;;;4931115;29;20417;-71
2022/10/27 05:53:15;;;;;;;38.33;26.52;;;11.40;99.90;;;;;;4930428;29;20086;-71
2022/10/27 05:55:41;;;;;;;31.42;22.58;;;11.40;99.90;;;;;;4931340;29;20122;-70
2022/10/27 05:58:06;;;;;;;38.10;22.80;;;11.30;99.90;;;;;;4944767;29;20509;-71
2022/10/27 06:00:36;;;;;;;37.92;24.92;;;11.30;99.90;;;;;;4928707;29;20070;-71
2022/10/27 06:03:03;;;;;;;34.13;25.27;;;11.30;99.90;;;;;;4928559;29;20047;-70
2022/10/27 06:05:30;;;;;;;45.65;27.33;;;11.30;99.90;;;;;;4928974;29;20048;-71
2022/10/27 06:07:56;;;;;;;34.60;25.42;;;11.30;99.90;;;;;;4929868;29;20091;-70
2022/10/27 06:10:23;;;;;;;32.50;23.25;;;11.30;99.90;;;;;;4928814;29;20139;-71
2022/10/27 06:12:50;;;;;;;46.13;27.27;;;11.30;99.90;;;;;;4930326;29;20047;-70
2022/10/27 06:15:16;;;;;;;40.33;26.33;;;11.30;99.90;;;;;;4927469;29;20497;-70
2022/10/27 06:17:42;;;;;;;47.88;28.73;;;11.50;99.90;;;;;;4929896;29;20114;-70
2022/10/27 06:20:08;;;;;;;46.13;29.25;;;11.50;99.90;;;;;;4929006;29;20052;-70
2022/10/27 06:22:34;;;;;;;49.22;29.05;;;11.50;99.90;;;;;;4943735;29;20662;-70
2022/10/27 06:25:00;;;;;;;47.13;29.15;;;11.50;99.90;;;;;;4926922;29;20054;-71
2022/10/27 06:27:25;;;;;;;46.30;29.27;;;11.60;99.90;;;;;;4945207;28;20484;-70
2022/10/27 06:29:51;;;;;;;52.97;31.67;;;11.50;99.90;;;;;;4928134;29;20059;-70
2022/10/27 06:32:16;;;;;;;45.92;30.70;;;11.60;99.90;;;;;;4923465;29;20056;-70
2022/10/27 06:34:42;;;;;;;46.85;29.95;;;11.60;99.90;;;;;;4936943;29;20098;-71
2022/10/27 06:37:08;;;;;;;44.00;29.92;;;11.60;99.90;;;;;;4930187;29;20056;-71
2022/10/27 06:39:33;;;;;;;53.30;29.95;;;11.60;99.90;;;;;;4929727;29;20036;-70
2022/10/27 06:41:59;;;;;;;46.72;29.45;;;11.60;99.90;;;;;;4928581;29;20449;-71
2022/10/27 06:44:25;;;;;;;37.50;27.23;;;11.70;99.90;;;;;;4944786;28;20035;-71
2022/10/27 06:46:51;;;;;;;44.05;28.38;;;11.70;99.90;;;;;;4930442;29;20040;-71
2022/10/27 06:49:16;;;;;;;47.97;31.98;;;11.60;99.90;;;;;;4927714;29;20047;-71
2022/10/27 06:51:42;;;;;;;49.35;29.23;;;11.70;99.90;;;;;;4925874;29;20071;-71
2022/10/27 06:54:08;;;;;;;50.53;29.35;;;11.70;99.90;;;;;;4946655;28;20067;-71
2022/10/27 06:56:33;;;;;;;59.85;30.10;;;11.80;99.90;;;;;;4929820;29;20134;-71
2022/10/27 06:59:00;;;;;;;52.55;30.92;;;11.80;99.90;;;;;;4950837;28;20043;-71
2022/10/27 07:01:26;;;;;;;49.70;29.90;;;11.90;99.90;;;;;;4929354;29;20040;-71
2022/10/27 07:03:51;;;;;;;45.17;28.08;;;11.90;99.90;;;;;;4930162;29;20094;-71
2022/10/27 07:06:17;;;;;;;44.30;28.42;;;12.00;99.90;;;;;;4928549;29;20075;-71
2022/10/27 07:08:43;;;;;;;46.08;29.45;;;12.10;99.90;;;;;;4945795;28;20047;-71
2022/10/27 07:11:09;;;;;;;46.05;29.42;;;12.20;99.90;;;;;;4929353;29;20131;-71
2022/10/27 07:13:36;;;;;;;53.60;30.02;;;12.30;99.90;;;;;;4927855;29;20493;-71
2022/10/27 07:16:03;;;;;;;42.83;28.73;;;12.30;99.90;;;;;;4928521;29;20563;-71
2022/10/27 07:18:28;;;;;;;47.03;28.85;;;12.40;99.90;;;;;;4944927;29;20053;-71
2022/10/27 07:20:54;;;;;;;51.05;31.60;;;12.50;99.90;;;;;;4943991;28;20055;-71
2022/10/27 07:23:20;;;;;;;50.63;31.10;;;12.50;99.90;;;;;;4927066;29;20058;-71
2022/10/27 07:25:49;;;;;;;47.65;29.95;;;12.50;99.90;;;;;;4921923;29;20106;-71
2022/10/27 07:28:16;;;;;;;46.47;29.88;;;12.70;99.90;;;;;;4946268;29;20052;-71
2022/10/27 07:30:43;;;;;;;45.40;28.83;;;12.70;99.90;;;;;;4931853;29;20452;-71
2022/10/27 07:33:09;;;;;;;50.90;28.92;;;12.80;99.90;;;;;;4929451;29;20093;-71
2022/10/27 07:35:35;;;;;;;48.17;29.90;;;12.90;99.90;;;;;;4943949;28;20840;-71
2022/10/27 07:38:01;;;;;;;40.80;26.10;;;12.90;99.90;;;;;;4929141;29;20051;-71
2022/10/27 07:40:27;;;;;;;44.78;27.92;;;13.00;99.90;;;;;;4933483;29;20048;-71
2022/10/27 07:42:55;;;;;;;47.15;25.30;;;13.20;99.90;;;;;;4944578;28;20056;-71
2022/10/27 07:45:22;;;;;;;;;;;13.30;99.90;;;;;;4932900;29;20052;-71
2022/10/27 07:47:50;;;;;;;59.33;26.80;;;13.50;99.90;;;;;;4932291;29;19931;-71
2022/10/27 07:50:18;;;;;;;37.95;26.33;;;13.50;99.90;;;;;;4929449;29;20051;-71
2022/10/27 07:52:45;;;;;;;43.40;24.75;;;13.60;99.90;;;;;;4931175;29;20051;-71
2022/10/27 07:55:13;;;;;;;38.83;23.97;;;13.60;99.90;;;;;;4931653;29;20619;-71
2022/10/27 07:57:39;;;;;;;36.97;21.67;;;13.60;99.90;;;;;;4930579;29;20479;-71
2022/10/27 08:00:07;;;;;;;43.50;24.45;;;13.70;99.90;;;;;;4931052;29;20048;-71
2022/10/27 08:02:33;;;;;;;32.97;23.48;;;13.90;99.90;;;;;;4931446;29;20051;-71
2022/10/27 08:04:59;;;;;;;40.92;21.13;;;13.90;99.90;;;;;;4933126;29;20087;-71
2022/10/27 08:07:24;;;;;;;42.22;22.67;;;13.90;99.90;;;;;;4931489;29;20047;-71
2022/10/27 08:09:50;;;;;;;39.22;23.58;;;14.00;99.90;;;;;;4952366;28;20079;-71
2022/10/27 08:12:16;;;;;;;35.70;21.70;;;14.10;99.90;;;;;;4932212;29;20044;-71
2022/10/27 08:14:42;;;;;;;36.00;21.95;;;14.10;99.90;;;;;;4929880;29;20044;-71
2022/10/27 08:17:07;;;;;;;37.50;21.98;;;14.10;99.90;;;;;;4931207;29;20059;-71
2022/10/27 08:19:33;;;;;;;39.60;22.10;;;14.10;99.90;;;;;;4945699;29;20044;-71
2022/10/27 08:21:59;;;;;;;41.30;21.48;;;14.10;99.90;;;;;;4932399;29;20054;-71
2022/10/27 08:24:25;;;;;;;33.00;22.60;;;14.20;99.90;;;;;;4932476;29;20058;-71
2022/10/27 08:26:50;;;;;;;30.23;21.38;;;14.30;99.90;;;;;;4931710;29;20130;-71
2022/10/27 08:29:16;;;;;;;32.70;22.55;;;14.40;99.90;;;;;;4930979;29;20083;-71
2022/10/27 08:31:41;;;;;;;38.63;20.52;;;14.40;99.90;;;;;;4930688;29;20056;-71
2022/10/27 08:34:07;;;;;;;37.35;23.33;;;14.40;99.90;;;;;;4951289;28;20056;-71
2022/10/27 08:36:37;;;;;;;34.47;19.60;;;14.50;99.90;;;;;;4945366;28;20056;-71
2022/10/27 08:39:08;;;;;;;36.20;20.70;;;14.60;99.90;;;;;;4931763;29;20066;-71
2022/10/27 08:42:02;;;;;;;34.25;19.15;;;14.60;99.90;;;;;;4931184;29;20079;-71
2022/10/27 08:44:33;;;;;;;32.78;20.17;;;14.70;99.90;;;;;;4946620;29;20505;-71
2022/10/27 08:47:12;;;;;;;33.60;19.50;;;14.70;99.90;;;;;;4932346;29;20044;-71
2022/10/27 08:49:43;;;;;;;30.55;20.45;;;14.80;99.90;;;;;;4931108;29;20500;-71
2022/10/27 08:52:47;;;;;;;31.80;21.20;;;14.70;99.90;;;;;;4929610;29;20393;-71
2022/10/27 08:55:13;;;;;;;44.88;21.25;;;14.80;99.90;;;;;;4904252;29;20062;-71
2022/10/27 08:57:49;;;;;;;35.90;21.02;;;14.80;99.90;;;;;;4946225;29;20052;-70
2022/10/27 09:00:15;;;;;;;41.33;22.27;;;14.90;99.90;;;;;;4930932;29;20051;-70
2022/10/27 09:03:00;;;;;;;36.53;22.58;;;14.90;99.90;;;;;;4932490;29;20048;-70
2022/10/27 09:05:53;;;;;;;30.55;21.55;;;15.00;99.90;;;;;;4931981;29;20074;-71
2022/10/27 09:08:40;;;;;;;39.53;17.48;;;15.20;99.90;;;;;;4924314;29;20119;-70
2022/10/27 09:11:14;;;;;;;35.20;18.63;;;15.30;99.90;;;;;;4921757;29;20393;-71
2022/10/27 09:14:09;;;;;;;23.65;16.17;;;15.30;99.90;;;;;;4946347;29;20051;-70
2022/10/27 09:16:47;;;;;;;25.35;14.52;;;15.50;99.90;;;;;;4930047;29;20070;-70
2022/10/27 09:19:18;;;;;;;19.92;13.57;;;15.50;99.90;;;;;;4927383;29;20497;-70
2022/10/27 09:21:43;;;;;;;25.73;15.32;;;15.70;99.90;;;;;;4930962;29;20051;-70
2022/10/27 09:24:16;;;;;;;26.40;13.18;;;15.90;99.90;;;;;;4948062;28;20154;-70
2022/10/27 09:26:44;;;;;;;18.05;12.60;;;16.00;99.90;;;;;;4931319;29;20131;-72
2022/10/27 09:29:19;;;;;;;19.88;13.48;;;16.00;99.90;;;;;;4944956;28;20131;-70
2022/10/27 09:32:06;;;;;;;18.38;12.77;;;16.30;99.90;;;;;;4929005;29;20082;-70
2022/10/27 09:34:42;;;;;;;18.45;12.48;;;16.30;99.90;;;;;;4936651;29;20111;-71
2022/10/27 09:37:16;;;;;;;15.30;11.02;;;16.40;99.90;;;;;;4929699;29;20051;-69
2022/10/27 09:39:49;;;;;;;18.38;11.85;;;16.60;99.90;;;;;;4918937;29;20150;-70
2022/10/27 09:42:15;;;;;;;53.63;14.32;;;16.70;99.90;;;;;;4929498;29;20159;-70
2022/10/27 09:44:59;;;;;;;122.53;19.98;;;16.70;99.90;;;;;;4930614;29;20044;-70
2022/10/27 09:47:34;;;;;;;19.85;10.10;;;16.80;99.90;;;;;;4931988;29;20604;-70
2022/10/27 09:50:04;;;;;;;25.17;9.38;;;16.80;99.90;;;;;;4935013;29;20513;-70
2022/10/27 09:52:38;;;;;;;23.60;10.02;;;16.90;99.90;;;;;;4929160;29;20450;-70
2022/10/27 09:55:05;;;;;;;18.17;9.77;;;17.00;99.90;;;;;;4929476;29;20095;-70
2022/10/27 09:57:37;;;;;;;29.75;11.48;;;17.00;99.90;;;;;;4930976;29;20052;-70
2022/10/27 10:00:20;;;;;;;20.73;9.55;;;17.00;99.90;;;;;;4945487;28;20078;-70
2022/10/27 10:02:52;;;;;;;16.38;8.85;;;17.10;99.90;;;;;;4944819;28;20183;-70
2022/10/27 10:05:27;;;;;;;21.27;8.75;;;17.10;99.90;;;;;;4929695;29;20051;-70
2022/10/27 10:08:12;;;;;;;13.73;7.68;;;17.10;99.90;;;;;;4910908;29;20047;-70
2022/10/27 10:10:39;;;;;;;11.50;8.07;;;17.10;99.90;;;;;;4928896;29;20048;-70
2022/10/27 10:13:08;;;;;;;13.85;8.05;;;17.20;99.90;;;;;;4923972;29;20142;-70
2022/10/27 10:15:45;;;;;;;17.25;7.90;;;17.10;99.90;;;;;;4929144;29;20043;-70
2022/10/27 10:18:39;;;;;;;13.27;7.57;;;17.30;99.90;;;;;;4930443;29;20063;-70
2022/10/27 10:21:07;;;;;;;12.63;7.43;;;17.30;99.90;;;;;;4927311;29;20310;-69
2022/10/27 10:23:49;;;;;;;17.85;8.63;;;17.30;99.90;;;;;;4930392;29;20126;-70
2022/10/27 10:26:18;;;;;;;15.98;9.20;;;17.40;99.90;;;;;;4930959;29;20059;-70
2022/10/27 10:28:45;;;;;;;22.77;8.15;;;17.40;99.90;;;;;;4928747;29;20055;-70
2022/10/27 10:31:23;;;;;;;13.65;9.30;;;17.40;99.90;;;;;;4927738;29;20063;-70
2022/10/27 10:33:48;;;;;;;12.45;8.27;;;17.60;99.90;;;;;;4929549;29;20048;-70
2022/10/27 10:36:39;;;;;;;16.20;8.65;;;17.60;99.90;;;;;;4931177;29;20044;-70
2022/10/27 10:39:26;;;;;;;13.80;7.97;;;17.70;99.90;;;;;;4925738;29;20048;-70
2022/10/27 10:42:12;;;;;;;12.43;6.93;;;17.90;99.90;;;;;;4928466;29;20685;-70
2022/10/27 10:44:38;;;;;;;11.18;7.85;;;18.00;99.90;;;;;;4926566;29;20048;-70
2022/10/27 10:47:05;;;;;;;21.70;8.02;;;18.10;99.90;;;;;;4930382;29;20058;-70
2022/10/27 10:49:32;;;;;;;10.27;6.93;;;18.00;99.90;;;;;;4929738;29;20086;-70
2022/10/27 10:52:01;;;;;;;17.30;7.43;;;18.10;99.90;;;;;;4928189;29;20452;-69
2022/10/27 10:54:32;;;;;;;13.23;6.65;;;18.20;99.90;;;;;;4929056;29;20044;-69
2022/10/27 10:56:58;;;;;;;10.63;7.47;;;18.10;99.90;;;;;;4930429;29;20040;-69
2022/10/27 10:59:30;;;;;;;11.93;6.53;;;18.20;99.90;;;;;;4930622;29;20059;-70
2022/10/27 11:02:17;;;;;;;9.48;6.50;;;18.20;99.90;;;;;;4930413;29;20054;-69
2022/10/27 11:04:46;;;;;;;10.05;6.35;;;18.20;99.90;;;;;;4925845;29;20092;-69
2022/10/27 11:07:25;;;;;;;11.15;5.65;;;18.30;99.90;;;;;;4928739;29;20201;-69
2022/10/27 11:10:00;;;;;;;10.30;6.45;;;18.30;99.90;;;;;;4930524;29;20489;-69
2022/10/27 11:12:37;;;;;;;17.00;6.82;;;18.30;99.90;;;;;;4930048;28;20066;-69
2022/10/27 11:15:26;;;;;;;19.58;5.85;;;18.40;99.90;;;;;;4930235;29;20051;-69
2022/10/27 11:17:56;;;;;;;11.45;5.80;;;18.40;99.90;;;;;;4921253;29;20179;-69
2022/10/27 11:20:32;;;;;;;13.15;7.03;;;18.40;99.90;;;;;;4932102;29;20091;-70
2022/10/27 11:23:02;;;;;;;18.35;6.55;;;18.50;99.90;;;;;;4942099;28;20051;-70
2022/10/27 11:25:33;;;;;;;15.73;6.50;;;18.60;99.90;;;;;;4931598;29;20054;-70
2022/10/27 11:28:05;;;;;;;10.95;6.25;;;18.50;99.90;;;;;;4932058;29;20138;-69
2022/10/27 11:30:35;;;;;;;10.75;6.43;;;18.60;99.90;;;;;;4931978;29;20119;-67
2022/10/27 11:33:18;;;;;;;8.23;5.68;;;18.60;99.90;;;;;;4933759;29;20425;-67
2022/10/27 11:35:51;;;;;;;13.63;5.78;;;18.60;99.90;;;;;;4933427;29;20119;-67
2022/10/27 11:38:26;;;;;;;12.00;6.70;;;18.70;99.90;;;;;;4932701;29;20102;-67
2022/10/27 11:41:06;;;;;;;14.13;6.35;;;18.70;99.90;;;;;;4931784;29;20961;-67
2022/10/27 11:43:38;;;;;;;11.88;6.85;;;18.70;99.90;;;;;;4931944;29;20047;-67
2022/10/27 11:46:11;;;;;;;13.98;6.93;;;18.60;99.90;;;;;;4931124;29;20087;-67
2022/10/27 11:48:43;;;;;;;21.85;7.47;;;18.60;99.90;;;;;;4933659;29;20050;-67
2022/10/27 11:51:18;;;;;;;11.95;6.78;;;18.60;99.90;;;;;;4932145;29;20122;-68
2022/10/27 11:53:44;;;;;;;8.65;6.35;;;18.60;99.90;;;;;;4932426;29;20047;-67
2022/10/27 11:56:35;;;;;;;12.75;6.43;;;18.60;99.90;;;;;;4932022;29;20058;-67
2022/10/27 11:59:00;;;;;;;19.83;6.65;;;18.60;99.90;;;;;;4932430;29;20044;-68
2022/10/27 12:01:46;;;;;;;18.60;6.20;;;18.60;99.90;;;;;;4933246;29;20416;-68
2022/10/27 12:04:33;;;;;;;16.70;5.40;;;18.60;99.90;;;;;;4931184;29;20862;-68
2022/10/27 12:07:28;;;;;;;8.32;5.47;;;18.70;99.90;;;;;;4929496;29;20083;-68
2022/10/27 12:10:09;;;;;;;7.47;6.65;;;18.60;99.90;;;;;;4933208;29;20086;-69
2022/10/27 12:12:48;;;;;;;11.60;5.85;;;18.70;99.90;;;;;;4933426;29;20063;-68
2022/10/27 12:15:19;;;;;;;10.90;6.03;;;18.70;99.90;;;;;;4929283;29;20070;-68
2022/10/27 12:18:06;;;;;;;7.63;5.63;;;18.70;99.90;;;;;;4924424;29;20047;-68
2022/10/27 12:20:48;;;;;;;9.43;5.57;;;18.70;99.90;;;;;;4944599;29;20050;-68
2022/10/27 12:23:20;;;;;;;10.00;5.38;;;18.70;99.90;;;;;;4930751;29;20094;-69
2022/10/27 12:25:59;;;;;;;17.10;5.95;;;18.80;99.90;;;;;;4932515;29;20047;-69
2022/10/27 12:28:27;;;;;;;14.10;5.35;;;18.80;99.90;;;;;;4930991;29;20417;-69
2022/10/27 12:30:57;;;;;;;11.50;6.30;;;18.80;99.90;;;;;;4932274;29;20083;-69
2022/10/27 12:33:51;;;;;;;9.95;5.07;;;18.80;99.90;;;;;;4937018;29;20083;-70
2022/10/27 12:36:27;;;;;;;14.50;5.10;;;18.80;99.90;;;;;;4931838;29;20047;-71
2022/10/27 12:39:04;;;;;;;13.40;5.50;;;18.80;99.90;;;;;;4932086;29;20785;-71
2022/10/27 12:42:03;;;;;;;9.23;4.90;;;18.80;99.90;;;;;;4932267;29;20103;-71
2022/10/27 12:45:06;;;;;;;8.43;4.55;;;18.80;99.90;;;;;;4932299;29;20100;-71
2022/10/27 12:47:53;;;;;;;23.83;6.05;;;18.90;99.90;;;;;;4935651;29;20047;-71